sensor_id;sensor_type;location;lat;lon;timestamp;temperature;humidity
13113;DHT22;6622;49.752;6.100;2022-10-22T00:00:00;15.30;99.90
13113;DHT22;6622;49.752;6.100;2022-10-22T00:02:27;15.30;99.90
13113;DHT22;6622;49.752;6.100;2022-10-22T00:04:53;15.30;99.90
13113;DHT22;6622;49.752;6.100;2022-10-22T00:07:20;15.30;99.90
13113;DHT22;6622;49.752;6.100;2022-10-22T00:09:47;15.30;99.90
13113;DHT22;6622;49.752;6.100;2022-10-22T00:12:14;15.20;99.90
13113;DHT22;6622;49.752;6.100;2022-10-22T00:14:41;15.20;99.90
13113;DHT22;6622;49.752;6.100;2022-10-22T00:17:07;15.20;99.90
13113;DHT22;6622;49.752;6.100;2022-10-22T00:19:34;15.20;99.90
13113;DHT22;6622;49.752;6.100;2022-10-22T00:22:01;15.20;99.90
13113;DHT22;6622;49.752;6.100;2022-10-22T00:24:28;15.20;99.90
13113;DHT22;6622;49.752;6.100;2022-10-22T00:26:55;15.20;99.90
13113;DHT22;6622;49.752;6.100;2022-10-22T00:29:21;15.20;99.90
13113;DHT22;6622;49.752;6.100;2022-10-22T00:31:48;15.20;99.90
13113;DHT22;6622;49.752;6.100;2022-10-22T00:34:15;15.20;99.90
13113;DHT22;6622;49.752;6.100;2022-10-22T00:36:41;15.20;99.90
13113;DHT22;6622;49.752;6.100;2022-10-22T00:39:08;15.20;99.90
13113;DHT22;6622;49.752;6.100;2022-10-22T00:41:34;15.30;99.90
13113;DHT22;6622;49.752;6.100;2022-10-22T00:44:02;15.30;99.90
13113;DHT22;6622;49.752;6.100;2022-10-22T00:46:28;15.30;99.90
13113;DHT22;6622;49.752;6.100;2022-10-22T00:48:55;15.30;99.90
13113;DHT22;6622;49.752;6.100;2022-10-22T00:51:21;15.30;99.90
13113;DHT22;6622;49.752;6.100;2022-10-22T00:53:49;15.30;99.90
13113;DHT22;6622;49.752;6.100;2022-10-22T00:56:15;15.30;99.90
13113;DHT22;6622;49.752;6.100;2022-10-22T00:58:42;15.30;99.90
13113;DHT22;6622;49.752;6.100;2022-10-22T01:01:09;15.30;99.90
13113;DHT22;6622;49.752;6.100;2022-10-22T01:03:36;15.30;99.90
13113;DHT22;6622;49.752;6.100;2022-10-22T01:06:03;15.20;99.90
13113;DHT22;6622;49.752;6.100;2022-10-22T01:08:51;15.20;99.90
13113;DHT22;6622;49.752;6.100;2022-10-22T01:11:25;15.30;99.90
13113;DHT22;6622;49.752;6.100;2022-10-22T01:16:28;15.20;99.90
13113;DHT22;6622;49.752;6.100;2022-10-22T01:18:59;15.20;99.90
13113;DHT22;6622;49.752;6.100;2022-10-22T01:21:36;15.20;99.90
13113;DHT22;6622;49.752;6.100;2022-10-22T01:26:31;15.20;99.90
13113;DHT22;6622;49.752;6.100;2022-10-22T01:28:57;15.10;99.90
13113;DHT22;6622;49.752;6.100;2022-10-22T01:31:23;15.10;99.90
13113;DHT22;6622;49.752;6.100;2022-10-22T01:33:50;15.10;99.90
13113;DHT22;6622;49.752;6.100;2022-10-22T01:36:16;15.10;99.90
13113;DHT22;6622;49.752;6.100;2022-10-22T01:38:43;15.10;99.90
13113;DHT22;6622;49.752;6.100;2022-10-22T01:41:09;15.10;99.90
13113;DHT22;6622;49.752;6.100;2022-10-22T01:43:37;15.00;99.90
13113;DHT22;6622;49.752;6.100;2022-10-22T01:46:04;15.00;99.90
13113;DHT22;6622;49.752;6.100;2022-10-22T01:51:45;15.00;99.90
13113;DHT22;6622;49.752;6.100;2022-10-22T01:54:24;15.00;99.90
13113;DHT22;6622;49.752;6.100;2022-10-22T01:56:55;15.00;99.90
13113;DHT22;6622;49.752;6.100;2022-10-22T02:02:19;15.00;99.90
13113;DHT22;6622;49.752;6.100;2022-10-22T02:07:20;15.00;99.90
13113;DHT22;6622;49.752;6.100;2022-10-22T02:09:46;15.00;99.90
13113;DHT22;6622;49.752;6.100;2022-10-22T02:12:13;14.90;99.90
13113;DHT22;6622;49.752;6.100;2022-10-22T02:14:40;15.00;99.90
13113;DHT22;6622;49.752;6.100;2022-10-22T02:17:07;14.90;99.90
13113;DHT22;6622;49.752;6.100;2022-10-22T02:19:35;14.80;99.90
13113;DHT22;6622;49.752;6.100;2022-10-22T02:22:00;14.80;99.90
13113;DHT22;6622;49.752;6.100;2022-10-22T02:24:26;14.80;99.90
13113;DHT22;6622;49.752;6.100;2022-10-22T02:27:14;14.80;99.90
13113;DHT22;6622;49.752;6.100;2022-10-22T02:32:20;14.80;99.90
13113;DHT22;6622;49.752;6.100;2022-10-22T02:34:46;14.70;99.90
13113;DHT22;6622;49.752;6.100;2022-10-22T02:37:12;14.70;99.90
13113;DHT22;6622;49.752;6.100;2022-10-22T02:39:39;14.70;99.90
13113;DHT22;6622;49.752;6.100;2022-10-22T02:42:06;14.60;99.90
13113;DHT22;6622;49.752;6.100;2022-10-22T02:44:32;14.60;99.90
13113;DHT22;6622;49.752;6.100;2022-10-22T02:46:59;14.60;99.90
13113;DHT22;6622;49.752;6.100;2022-10-22T02:49:25;14.50;99.90
13113;DHT22;6622;49.752;6.100;2022-10-22T02:51:52;14.50;99.90
13113;DHT22;6622;49.752;6.100;2022-10-22T02:54:19;14.50;99.90
13113;DHT22;6622;49.752;6.100;2022-10-22T02:56:45;14.50;99.90
13113;DHT22;6622;49.752;6.100;2022-10-22T02:59:12;14.50;99.90
13113;DHT22;6622;49.752;6.100;2022-10-22T03:01:39;14.40;99.90
13113;DHT22;6622;49.752;6.100;2022-10-22T03:04:05;14.40;99.90
13113;DHT22;6622;49.752;6.100;2022-10-22T03:06:32;14.40;99.90
13113;DHT22;6622;49.752;6.100;2022-10-22T03:08:58;14.30;99.90
13113;DHT22;6622;49.752;6.100;2022-10-22T03:11:25;14.30;99.90
13113;DHT22;6622;49.752;6.100;2022-10-22T03:13:52;14.30;99.90
13113;DHT22;6622;49.752;6.100;2022-10-22T03:16:18;14.30;99.90
13113;DHT22;6622;49.752;6.100;2022-10-22T03:18:45;14.30;99.90
13113;DHT22;6622;49.752;6.100;2022-10-22T03:23:57;14.30;99.90
13113;DHT22;6622;49.752;6.100;2022-10-22T03:26:23;14.20;99.90
13113;DHT22;6622;49.752;6.100;2022-10-22T03:28:50;14.20;99.90
13113;DHT22;6622;49.752;6.100;2022-10-22T03:31:16;14.20;99.90
13113;DHT22;6622;49.752;6.100;2022-10-22T03:33:44;14.10;99.90
13113;DHT22;6622;49.752;6.100;2022-10-22T03:36:10;14.10;99.90
13113;DHT22;6622;49.752;6.100;2022-10-22T03:38:37;14.10;99.90
13113;DHT22;6622;49.752;6.100;2022-10-22T03:41:05;13.90;99.90
13113;DHT22;6622;49.752;6.100;2022-10-22T03:43:32;13.90;99.90
13113;DHT22;6622;49.752;6.100;2022-10-22T03:45:58;13.90;99.90
13113;DHT22;6622;49.752;6.100;2022-10-22T03:48:24;13.90;99.90
13113;DHT22;6622;49.752;6.100;2022-10-22T03:50:51;13.90;99.90
13113;DHT22;6622;49.752;6.100;2022-10-22T03:53:18;13.90;99.90
13113;DHT22;6622;49.752;6.100;2022-10-22T03:55:45;13.90;99.90
13113;DHT22;6622;49.752;6.100;2022-10-22T03:58:11;13.90;99.90
13113;DHT22;6622;49.752;6.100;2022-10-22T04:00:38;13.90;99.90
13113;DHT22;6622;49.752;6.100;2022-10-22T04:03:04;13.90;99.90
13113;DHT22;6622;49.752;6.100;2022-10-22T04:05:31;13.90;99.90
13113;DHT22;6622;49.752;6.100;2022-10-22T04:07:57;13.90;99.90
13113;DHT22;6622;49.752;6.100;2022-10-22T04:10:25;13.90;99.90
13113;DHT22;6622;49.752;6.100;2022-10-22T04:12:51;14.00;99.90
13113;DHT22;6622;49.752;6.100;2022-10-22T04:15:18;13.90;99.90
13113;DHT22;6622;49.752;6.100;2022-10-22T04:17:45;13.90;99.90
13113;DHT22;6622;49.752;6.100;2022-10-22T04:20:12;13.90;99.90
13113;DHT22;6622;49.752;6.100;2022-10-22T04:22:39;13.90;99.90
13113;DHT22;6622;49.752;6.100;2022-10-22T04:25:05;13.80;99.90
13113;DHT22;6622;49.752;6.100;2022-10-22T04:27:33;13.70;99.90
13113;DHT22;6622;49.752;6.100;2022-10-22T04:29:59;13.50;99.90
13113;DHT22;6622;49.752;6.100;2022-10-22T04:32:26;13.50;99.90
13113;DHT22;6622;49.752;6.100;2022-10-22T04:34:53;13.50;99.90
13113;DHT22;6622;49.752;6.100;2022-10-22T04:37:20;13.50;99.90
13113;DHT22;6622;49.752;6.100;2022-10-22T04:39:47;13.50;99.90
13113;DHT22;6622;49.752;6.100;2022-10-22T04:42:13;13.50;99.90
13113;DHT22;6622;49.752;6.100;2022-10-22T04:44:40;13.50;99.90
13113;DHT22;6622;49.752;6.100;2022-10-22T04:47:07;13.40;99.90
13113;DHT22;6622;49.752;6.100;2022-10-22T04:49:34;13.40;99.90
13113;DHT22;6622;49.752;6.100;2022-10-22T04:52:00;13.30;99.90
13113;DHT22;6622;49.752;6.100;2022-10-22T04:54:27;13.30;99.90
13113;DHT22;6622;49.752;6.100;2022-10-22T04:56:54;13.20;99.90
13113;DHT22;6622;49.752;6.100;2022-10-22T04:59:20;13.10;99.90
13113;DHT22;6622;49.752;6.100;2022-10-22T05:01:47;13.10;99.90
13113;DHT22;6622;49.752;6.100;2022-10-22T05:04:14;13.10;99.90
13113;DHT22;6622;49.752;6.100;2022-10-22T05:06:40;13.00;99.90
13113;DHT22;6622;49.752;6.100;2022-10-22T05:09:09;13.00;99.90
13113;DHT22;6622;49.752;6.100;2022-10-22T05:11:34;12.90;99.90
13113;DHT22;6622;49.752;6.100;2022-10-22T05:14:01;13.00;99.90
13113;DHT22;6622;49.752;6.100;2022-10-22T05:16:29;13.00;99.90
13113;DHT22;6622;49.752;6.100;2022-10-22T05:18:54;13.00;99.90
13113;DHT22;6622;49.752;6.100;2022-10-22T05:21:21;13.10;99.90
13113;DHT22;6622;49.752;6.100;2022-10-22T05:23:48;13.10;99.90
13113;DHT22;6622;49.752;6.100;2022-10-22T05:26:16;13.10;99.90
13113;DHT22;6622;49.752;6.100;2022-10-22T05:28:41;13.10;99.90
13113;DHT22;6622;49.752;6.100;2022-10-22T05:31:09;13.10;99.90
13113;DHT22;6622;49.752;6.100;2022-10-22T05:33:35;13.10;99.90
13113;DHT22;6622;49.752;6.100;2022-10-22T05:36:02;13.00;99.90
13113;DHT22;6622;49.752;6.100;2022-10-22T05:38:29;13.00;99.90
13113;DHT22;6622;49.752;6.100;2022-10-22T05:41:09;13.00;99.90
13113;DHT22;6622;49.752;6.100;2022-10-22T05:43:25;12.90;99.90
13113;DHT22;6622;49.752;6.100;2022-10-22T05:45:52;12.90;99.90
13113;DHT22;6622;49.752;6.100;2022-10-22T05:48:18;12.80;99.90
13113;DHT22;6622;49.752;6.100;2022-10-22T05:50:46;12.80;99.90
13113;DHT22;6622;49.752;6.100;2022-10-22T05:53:12;12.90;99.90
13113;DHT22;6622;49.752;6.100;2022-10-22T05:55:39;12.90;99.90
13113;DHT22;6622;49.752;6.100;2022-10-22T05:58:06;12.90;99.90
13113;DHT22;6622;49.752;6.100;2022-10-22T06:00:32;12.80;99.90
13113;DHT22;6622;49.752;6.100;2022-10-22T06:02:59;12.80;99.90
13113;DHT22;6622;49.752;6.100;2022-10-22T06:05:25;12.80;99.90
13113;DHT22;6622;49.752;6.100;2022-10-22T06:07:52;12.80;99.90
13113;DHT22;6622;49.752;6.100;2022-10-22T06:10:19;12.80;99.90
13113;DHT22;6622;49.752;6.100;2022-10-22T06:12:46;12.80;99.90
13113;DHT22;6622;49.752;6.100;2022-10-22T06:15:13;12.80;99.90
13113;DHT22;6622;49.752;6.100;2022-10-22T06:17:39;12.80;99.90
13113;DHT22;6622;49.752;6.100;2022-10-22T06:20:06;12.80;99.90
13113;DHT22;6622;49.752;6.100;2022-10-22T06:22:33;12.80;99.90
13113;DHT22;6622;49.752;6.100;2022-10-22T06:24:59;12.70;99.90
13113;DHT22;6622;49.752;6.100;2022-10-22T06:27:26;12.70;99.90
13113;DHT22;6622;49.752;6.100;2022-10-22T06:29:53;12.60;99.90
13113;DHT22;6622;49.752;6.100;2022-10-22T06:32:20;12.50;99.90
13113;DHT22;6622;49.752;6.100;2022-10-22T06:34:47;12.50;99.90
13113;DHT22;6622;49.752;6.100;2022-10-22T06:37:13;12.60;99.90
13113;DHT22;6622;49.752;6.100;2022-10-22T06:39:40;12.70;99.90
13113;DHT22;6622;49.752;6.100;2022-10-22T06:42:07;12.80;99.90
13113;DHT22;6622;49.752;6.100;2022-10-22T06:44:34;12.80;99.90
13113;DHT22;6622;49.752;6.100;2022-10-22T06:47:01;12.90;99.90
13113;DHT22;6622;49.752;6.100;2022-10-22T06:49:27;12.90;99.90
13113;DHT22;6622;49.752;6.100;2022-10-22T06:51:54;13.00;99.90
13113;DHT22;6622;49.752;6.100;2022-10-22T06:54:21;13.00;99.90
13113;DHT22;6622;49.752;6.100;2022-10-22T06:56:47;13.00;99.90
13113;DHT22;6622;49.752;6.100;2022-10-22T06:59:14;13.10;99.90
13113;DHT22;6622;49.752;6.100;2022-10-22T07:01:40;13.20;99.90
13113;DHT22;6622;49.752;6.100;2022-10-22T07:04:08;13.20;99.90
13113;DHT22;6622;49.752;6.100;2022-10-22T07:06:34;13.20;99.90
13113;DHT22;6622;49.752;6.100;2022-10-22T07:09:00;13.20;99.90
13113;DHT22;6622;49.752;6.100;2022-10-22T07:11:28;13.20;99.90
13113;DHT22;6622;49.752;6.100;2022-10-22T07:13:54;13.10;99.90
13113;DHT22;6622;49.752;6.100;2022-10-22T07:16:20;13.20;99.90
13113;DHT22;6622;49.752;6.100;2022-10-22T07:18:47;13.20;99.90
13113;DHT22;6622;49.752;6.100;2022-10-22T07:21:14;13.30;99.90
13113;DHT22;6622;49.752;6.100;2022-10-22T07:23:40;13.30;99.90
13113;DHT22;6622;49.752;6.100;2022-10-22T07:26:07;13.30;99.90
13113;DHT22;6622;49.752;6.100;2022-10-22T07:28:34;13.30;99.90
13113;DHT22;6622;49.752;6.100;2022-10-22T07:31:00;13.30;99.90
13113;DHT22;6622;49.752;6.100;2022-10-22T07:33:26;13.40;99.90
13113;DHT22;6622;49.752;6.100;2022-10-22T07:36:00;13.50;99.90
13113;DHT22;6622;49.752;6.100;2022-10-22T07:38:26;13.50;99.90
13113;DHT22;6622;49.752;6.100;2022-10-22T07:40:52;13.50;99.90
13113;DHT22;6622;49.752;6.100;2022-10-22T07:43:20;13.60;99.90
13113;DHT22;6622;49.752;6.100;2022-10-22T07:45:46;13.50;99.90
13113;DHT22;6622;49.752;6.100;2022-10-22T07:48:13;13.50;99.90
13113;DHT22;6622;49.752;6.100;2022-10-22T07:50:40;13.50;99.90
13113;DHT22;6622;49.752;6.100;2022-10-22T07:53:07;13.50;99.90
13113;DHT22;6622;49.752;6.100;2022-10-22T07:55:34;13.50;99.90
13113;DHT22;6622;49.752;6.100;2022-10-22T07:58:00;13.60;99.90
13113;DHT22;6622;49.752;6.100;2022-10-22T08:00:28;13.50;99.90
13113;DHT22;6622;49.752;6.100;2022-10-22T08:02:54;13.60;99.90
13113;DHT22;6622;49.752;6.100;2022-10-22T08:05:21;13.60;99.90
13113;DHT22;6622;49.752;6.100;2022-10-22T08:07:48;13.70;99.90
13113;DHT22;6622;49.752;6.100;2022-10-22T08:10:15;13.70;99.90
13113;DHT22;6622;49.752;6.100;2022-10-22T08:12:42;13.70;99.90
13113;DHT22;6622;49.752;6.100;2022-10-22T08:15:08;13.80;99.90
13113;DHT22;6622;49.752;6.100;2022-10-22T08:17:35;13.90;99.90
13113;DHT22;6622;49.752;6.100;2022-10-22T08:20:02;14.00;99.90
13113;DHT22;6622;49.752;6.100;2022-10-22T08:22:28;14.20;99.90
13113;DHT22;6622;49.752;6.100;2022-10-22T08:24:55;14.20;99.90
13113;DHT22;6622;49.752;6.100;2022-10-22T08:27:21;14.20;99.90
13113;DHT22;6622;49.752;6.100;2022-10-22T08:29:48;14.30;99.90
13113;DHT22;6622;49.752;6.100;2022-10-22T08:32:15;14.50;99.90
13113;DHT22;6622;49.752;6.100;2022-10-22T08:34:42;14.80;99.90
13113;DHT22;6622;49.752;6.100;2022-10-22T08:37:09;14.80;99.90
13113;DHT22;6622;49.752;6.100;2022-10-22T08:39:35;14.90;99.90
13113;DHT22;6622;49.752;6.100;2022-10-22T08:45:07;15.00;99.90
13113;DHT22;6622;49.752;6.100;2022-10-22T08:48:25;15.00;99.90
13113;DHT22;6622;49.752;6.100;2022-10-22T08:50:11;15.30;99.90
13113;DHT22;6622;49.752;6.100;2022-10-22T08:52:38;15.30;99.90
13113;DHT22;6622;49.752;6.100;2022-10-22T08:55:04;15.50;99.90
13113;DHT22;6622;49.752;6.100;2022-10-22T08:57:43;15.50;99.90
13113;DHT22;6622;49.752;6.100;2022-10-22T09:03:03;15.90;99.90
13113;DHT22;6622;49.752;6.100;2022-10-22T09:05:51;15.90;99.90
13113;DHT22;6622;49.752;6.100;2022-10-22T09:08:15;16.20;99.90
13113;DHT22;6622;49.752;6.100;2022-10-22T09:10:46;16.20;99.90
13113;DHT22;6622;49.752;6.100;2022-10-22T09:13:11;16.40;99.90
13113;DHT22;6622;49.752;6.100;2022-10-22T09:15:37;16.80;99.90
13113;DHT22;6622;49.752;6.100;2022-10-22T09:18:29;16.90;99.90
13113;DHT22;6622;49.752;6.100;2022-10-22T09:21:02;17.20;99.90
13113;DHT22;6622;49.752;6.100;2022-10-22T09:23:31;17.50;99.90
13113;DHT22;6622;49.752;6.100;2022-10-22T09:25:54;17.20;99.90
13113;DHT22;6622;49.752;6.100;2022-10-22T09:28:21;17.40;99.90
13113;DHT22;6622;49.752;6.100;2022-10-22T09:30:48;17.70;99.90
13113;DHT22;6622;49.752;6.100;2022-10-22T09:33:17;17.60;99.90
13113;DHT22;6622;49.752;6.100;2022-10-22T09:35:50;17.70;99.90
13113;DHT22;6622;49.752;6.100;2022-10-22T09:38:15;17.90;99.90
13113;DHT22;6622;49.752;6.100;2022-10-22T09:40:48;17.80;99.90
13113;DHT22;6622;49.752;6.100;2022-10-22T09:43:14;17.70;99.90
13113;DHT22;6622;49.752;6.100;2022-10-22T09:45:42;18.30;99.90
13113;DHT22;6622;49.752;6.100;2022-10-22T09:48:20;18.30;99.90
13113;DHT22;6622;49.752;6.100;2022-10-22T09:50:45;18.30;99.90
13113;DHT22;6622;49.752;6.100;2022-10-22T09:53:18;18.40;99.90
13113;DHT22;6622;49.752;6.100;2022-10-22T09:55:43;18.50;99.90
13113;DHT22;6622;49.752;6.100;2022-10-22T09:58:11;18.20;99.90
13113;DHT22;6622;49.752;6.100;2022-10-22T10:00:38;18.20;99.90
13113;DHT22;6622;49.752;6.100;2022-10-22T10:03:03;18.00;99.90
13113;DHT22;6622;49.752;6.100;2022-10-22T10:05:32;17.90;99.90
13113;DHT22;6622;49.752;6.100;2022-10-22T10:07:58;17.70;99.90
13113;DHT22;6622;49.752;6.100;2022-10-22T10:10:40;17.60;99.90
13113;DHT22;6622;49.752;6.100;2022-10-22T10:13:36;17.70;99.90
13113;DHT22;6622;49.752;6.100;2022-10-22T10:16:06;17.70;99.90
13113;DHT22;6622;49.752;6.100;2022-10-22T10:26:42;18.50;99.90
13113;DHT22;6622;49.752;6.100;2022-10-22T10:29:23;18.30;99.90
13113;DHT22;6622;49.752;6.100;2022-10-22T10:32:01;18.40;99.90
13113;DHT22;6622;49.752;6.100;2022-10-22T10:34:28;17.90;99.90
13113;DHT22;6622;49.752;6.100;2022-10-22T10:42:10;18.20;99.90
13113;DHT22;6622;49.752;6.100;2022-10-22T10:56:13;18.50;99.90
13113;DHT22;6622;49.752;6.100;2022-10-22T10:58:46;18.50;99.90
13113;DHT22;6622;49.752;6.100;2022-10-22T11:03:50;18.10;99.90
13113;DHT22;6622;49.752;6.100;2022-10-22T11:06:13;17.90;99.90
13113;DHT22;6622;49.752;6.100;2022-10-22T11:08:46;17.90;99.90
13113;DHT22;6622;49.752;6.100;2022-10-22T11:11:17;17.80;99.90
13113;DHT22;6622;49.752;6.100;2022-10-22T11:13:54;17.90;99.90
13113;DHT22;6622;49.752;6.100;2022-10-22T11:21:46;18.70;99.90
13113;DHT22;6622;49.752;6.100;2022-10-22T11:24:25;18.70;99.90
13113;DHT22;6622;49.752;6.100;2022-10-22T11:27:00;18.70;99.90
13113;DHT22;6622;49.752;6.100;2022-10-22T11:29:24;18.70;99.90
13113;DHT22;6622;49.752;6.100;2022-10-22T11:31:50;18.40;99.90
13113;DHT22;6622;49.752;6.100;2022-10-22T11:34:33;18.40;99.90
13113;DHT22;6622;49.752;6.100;2022-10-22T11:36:58;18.50;99.90
13113;DHT22;6622;49.752;6.100;2022-10-22T11:39:28;18.70;99.90
13113;DHT22;6622;49.752;6.100;2022-10-22T11:41:54;18.80;99.90
13113;DHT22;6622;49.752;6.100;2022-10-22T11:44:21;19.00;99.90
13113;DHT22;6622;49.752;6.100;2022-10-22T11:46:57;19.00;99.90
13113;DHT22;6622;49.752;6.100;2022-10-22T11:49:45;19.00;99.90
13113;DHT22;6622;49.752;6.100;2022-10-22T11:52:24;19.00;99.90
13113;DHT22;6622;49.752;6.100;2022-10-22T11:54:52;18.90;99.90
13113;DHT22;6622;49.752;6.100;2022-10-22T11:59:52;18.90;99.90
13113;DHT22;6622;49.752;6.100;2022-10-22T12:02:28;18.80;99.90
13113;DHT22;6622;49.752;6.100;2022-10-22T12:04:47;18.80;99.90
13113;DHT22;6622;49.752;6.100;2022-10-22T12:07:33;18.80;99.90
13113;DHT22;6622;49.752;6.100;2022-10-22T12:09:58;18.80;99.90
13113;DHT22;6622;49.752;6.100;2022-10-22T12:12:25;18.70;99.90
13113;DHT22;6622;49.752;6.100;2022-10-22T12:14:57;18.70;99.90
13113;DHT22;6622;49.752;6.100;2022-10-22T12:17:24;18.70;99.90
13113;DHT22;6622;49.752;6.100;2022-10-22T12:19:56;18.70;99.90
13113;DHT22;6622;49.752;6.100;2022-10-22T12:22:25;18.70;99.90
13113;DHT22;6622;49.752;6.100;2022-10-22T12:24:47;18.70;99.90
13113;DHT22;6622;49.752;6.100;2022-10-22T12:27:22;18.60;99.90
13113;DHT22;6622;49.752;6.100;2022-10-22T12:29:45;18.50;99.90
13113;DHT22;6622;49.752;6.100;2022-10-22T12:32:12;18.60;99.90
13113;DHT22;6622;49.752;6.100;2022-10-22T12:34:48;18.70;99.90
13113;DHT22;6622;49.752;6.100;2022-10-22T12:37:05;18.70;99.90
13113;DHT22;6622;49.752;6.100;2022-10-22T12:39:32;18.70;99.90
13113;DHT22;6622;49.752;6.100;2022-10-22T12:41:58;18.60;99.90
13113;DHT22;6622;49.752;6.100;2022-10-22T12:44:25;18.50;99.90
13113;DHT22;6622;49.752;6.100;2022-10-22T12:46:52;18.30;99.90
13113;DHT22;6622;49.752;6.100;2022-10-22T12:49:19;18.30;99.90
13113;DHT22;6622;49.752;6.100;2022-10-22T12:51:45;18.40;99.90
13113;DHT22;6622;49.752;6.100;2022-10-22T12:54:24;18.40;99.90
13113;DHT22;6622;49.752;6.100;2022-10-22T12:56:50;18.50;99.90
13113;DHT22;6622;49.752;6.100;2022-10-22T12:59:27;18.60;99.90
13113;DHT22;6622;49.752;6.100;2022-10-22T13:01:43;18.60;99.90
13113;DHT22;6622;49.752;6.100;2022-10-22T13:04:20;18.60;99.90
13113;DHT22;6622;49.752;6.100;2022-10-22T13:06:50;18.50;99.90
13113;DHT22;6622;49.752;6.100;2022-10-22T13:09:19;18.60;99.90
13113;DHT22;6622;49.752;6.100;2022-10-22T13:11:48;18.70;99.90
13113;DHT22;6622;49.752;6.100;2022-10-22T13:14:17;18.70;99.90
13113;DHT22;6622;49.752;6.100;2022-10-22T13:16:41;18.60;99.90
13113;DHT22;6622;49.752;6.100;2022-10-22T13:19:32;18.60;99.90
13113;DHT22;6622;49.752;6.100;2022-10-22T13:21:36;18.50;99.90
13113;DHT22;6622;49.752;6.100;2022-10-22T13:24:02;18.50;99.90
13113;DHT22;6622;49.752;6.100;2022-10-22T13:26:32;18.50;99.90
13113;DHT22;6622;49.752;6.100;2022-10-22T13:28:58;18.50;99.90
13113;DHT22;6622;49.752;6.100;2022-10-22T13:31:29;18.50;99.90
13113;DHT22;6622;49.752;6.100;2022-10-22T13:33:55;18.50;99.90
13113;DHT22;6622;49.752;6.100;2022-10-22T13:36:21;18.60;99.90
13113;DHT22;6622;49.752;6.100;2022-10-22T13:38:48;18.60;99.90
13113;DHT22;6622;49.752;6.100;2022-10-22T13:41:18;18.60;99.90
13113;DHT22;6622;49.752;6.100;2022-10-22T13:43:44;18.70;99.90
13113;DHT22;6622;49.752;6.100;2022-10-22T13:46:10;18.70;99.90
13113;DHT22;6622;49.752;6.100;2022-10-22T13:48:38;18.80;99.90
13113;DHT22;6622;49.752;6.100;2022-10-22T13:51:06;18.80;99.90
13113;DHT22;6622;49.752;6.100;2022-10-22T13:53:31;18.80;99.90
13113;DHT22;6622;49.752;6.100;2022-10-22T13:55:58;18.80;99.90
13113;DHT22;6622;49.752;6.100;2022-10-22T13:58:24;18.70;99.90
13113;DHT22;6622;49.752;6.100;2022-10-22T14:00:56;18.70;99.90
13113;DHT22;6622;49.752;6.100;2022-10-22T14:03:22;18.70;99.90
13113;DHT22;6622;49.752;6.100;2022-10-22T14:05:48;18.80;99.90
13113;DHT22;6622;49.752;6.100;2022-10-22T14:08:15;18.80;99.90
13113;DHT22;6622;49.752;6.100;2022-10-22T14:10:41;18.80;99.90
13113;DHT22;6622;49.752;6.100;2022-10-22T14:13:14;18.80;99.90
13113;DHT22;6622;49.752;6.100;2022-10-22T14:15:37;18.80;99.90
13113;DHT22;6622;49.752;6.100;2022-10-22T14:18:04;18.80;99.90
13113;DHT22;6622;49.752;6.100;2022-10-22T14:20:31;18.80;99.90
13113;DHT22;6622;49.752;6.100;2022-10-22T14:23:00;18.80;99.90
13113;DHT22;6622;49.752;6.100;2022-10-22T14:25:24;18.80;99.90
13113;DHT22;6622;49.752;6.100;2022-10-22T14:27:50;18.80;99.90
13113;DHT22;6622;49.752;6.100;2022-10-22T14:30:23;18.70;99.90
13113;DHT22;6622;49.752;6.100;2022-10-22T14:32:49;18.80;99.90
13113;DHT22;6622;49.752;6.100;2022-10-22T14:35:17;18.80;99.90
13113;DHT22;6622;49.752;6.100;2022-10-22T14:37:42;18.80;99.90
13113;DHT22;6622;49.752;6.100;2022-10-22T14:40:11;18.80;99.90
13113;DHT22;6622;49.752;6.100;2022-10-22T14:42:36;18.80;99.90
13113;DHT22;6622;49.752;6.100;2022-10-22T14:45:02;18.70;99.90
13113;DHT22;6622;49.752;6.100;2022-10-22T14:47:29;18.60;99.90
13113;DHT22;6622;49.752;6.100;2022-10-22T14:49:56;18.40;99.90
13113;DHT22;6622;49.752;6.100;2022-10-22T14:52:23;18.40;99.90
13113;DHT22;6622;49.752;6.100;2022-10-22T14:54:49;18.30;99.90
13113;DHT22;6622;49.752;6.100;2022-10-22T14:57:16;18.20;99.90
13113;DHT22;6622;49.752;6.100;2022-10-22T14:59:43;18.20;99.90
13113;DHT22;6622;49.752;6.100;2022-10-22T15:02:12;18.10;99.90
13113;DHT22;6622;49.752;6.100;2022-10-22T15:04:39;18.10;99.90
13113;DHT22;6622;49.752;6.100;2022-10-22T15:07:06;18.00;99.90
13113;DHT22;6622;49.752;6.100;2022-10-22T15:09:32;18.00;99.90
13113;DHT22;6622;49.752;6.100;2022-10-22T15:11:59;18.00;99.90
13113;DHT22;6622;49.752;6.100;2022-10-22T15:14:26;17.90;99.90
13113;DHT22;6622;49.752;6.100;2022-10-22T15:16:52;17.90;99.90
13113;DHT22;6622;49.752;6.100;2022-10-22T15:19:19;17.90;99.90
13113;DHT22;6622;49.752;6.100;2022-10-22T15:21:46;17.90;99.90
13113;DHT22;6622;49.752;6.100;2022-10-22T15:24:13;17.90;99.90
13113;DHT22;6622;49.752;6.100;2022-10-22T15:26:39;17.80;99.90
13113;DHT22;6622;49.752;6.100;2022-10-22T15:29:06;17.80;99.90
13113;DHT22;6622;49.752;6.100;2022-10-22T15:31:49;17.80;99.90
13113;DHT22;6622;49.752;6.100;2022-10-22T15:34:29;17.80;99.90
13113;DHT22;6622;49.752;6.100;2022-10-22T15:36:55;17.80;99.90
13113;DHT22;6622;49.752;6.100;2022-10-22T15:39:21;17.80;99.90
13113;DHT22;6622;49.752;6.100;2022-10-22T15:41:48;17.70;99.90
13113;DHT22;6622;49.752;6.100;2022-10-22T15:44:16;17.70;99.90
13113;DHT22;6622;49.752;6.100;2022-10-22T15:46:42;17.70;99.90
13113;DHT22;6622;49.752;6.100;2022-10-22T15:49:08;17.70;99.90
13113;DHT22;6622;49.752;6.100;2022-10-22T15:51:35;17.60;99.90
13113;DHT22;6622;49.752;6.100;2022-10-22T15:54:03;17.50;99.90
13113;DHT22;6622;49.752;6.100;2022-10-22T15:56:29;17.50;99.90
13113;DHT22;6622;49.752;6.100;2022-10-22T15:59:00;17.40;99.90
13113;DHT22;6622;49.752;6.100;2022-10-22T16:01:25;17.40;99.90
13113;DHT22;6622;49.752;6.100;2022-10-22T16:03:52;17.30;99.90
13113;DHT22;6622;49.752;6.100;2022-10-22T16:06:18;17.20;99.90
13113;DHT22;6622;49.752;6.100;2022-10-22T16:08:45;17.20;99.90
13113;DHT22;6622;49.752;6.100;2022-10-22T16:11:12;17.10;99.90
13113;DHT22;6622;49.752;6.100;2022-10-22T16:13:39;17.00;99.90
13113;DHT22;6622;49.752;6.100;2022-10-22T16:16:06;17.00;99.90
13113;DHT22;6622;49.752;6.100;2022-10-22T16:18:32;17.00;99.90
13113;DHT22;6622;49.752;6.100;2022-10-22T16:20:59;17.00;99.90
13113;DHT22;6622;49.752;6.100;2022-10-22T16:23:26;16.90;99.90
13113;DHT22;6622;49.752;6.100;2022-10-22T16:25:53;16.90;99.90
13113;DHT22;6622;49.752;6.100;2022-10-22T16:28:20;16.80;99.90
13113;DHT22;6622;49.752;6.100;2022-10-22T16:30:46;16.60;99.90
13113;DHT22;6622;49.752;6.100;2022-10-22T16:33:13;16.50;99.90
13113;DHT22;6622;49.752;6.100;2022-10-22T16:35:40;16.30;99.90
13113;DHT22;6622;49.752;6.100;2022-10-22T16:38:06;16.30;99.90
13113;DHT22;6622;49.752;6.100;2022-10-22T16:40:33;16.10;99.90
13113;DHT22;6622;49.752;6.100;2022-10-22T16:42:59;16.10;99.90
13113;DHT22;6622;49.752;6.100;2022-10-22T16:45:26;16.10;99.90
13113;DHT22;6622;49.752;6.100;2022-10-22T16:47:53;16.00;99.90